Baiting Hollow, New York
Current Conditions -  °F | °C
As of 12:53 PM on Wednesday 28 Jan 2015 (Local Time) from KFOK Reporting Station
Clear Clear  
Wind Chill: 11°   Ceiling: Unl
Heat Index: 23°   Visibility: 10mi
Dew Point: 10°   Wind: 13mph
Humidity: 58%   Direction: 330°NNW
Pressure: 30.02"   Gusts: 25mph
Location:  40.9282°N, 72.7588°W
Report Text: KFOK 281753Z 33011G22KT 10SM CLR M05/M12 A3002 RMK AO2 SLP167 60000 T10501122 11044 21083 51008
Loading
Personal Weather Stations






























Interactive Weather Map New forecast layout! Learn more

10-Day Weather Forecast

Advertisements
Track Severe Weather on mobile